Time;durP1;ratioP1;P1;durP2;ratioP2;P2;SDS_P1;SDS_P2;PMS_P1;PMS_P2;Temp;Humidity;BMP_temperature;BMP_pressure;BME280_temperature;BME280_humidity;BME280_pressure;Samples;Min_cycle;Max_cycle;Signal;HPM_P1;HPM_P2
2023/04/27 00:01:37;;;;;;;7.70;3.63;;;;;;;;;;4937490;28;20091;-68
2023/04/27 00:04:03;;;;;;;8.93;4.85;;;;;;;;;;4941791;28;20051;-68
2023/04/27 00:06:31;;;;;;;8.52;4.93;;;;;;;;;;4937995;28;20502;-69
2023/04/27 00:08:58;;;;;;;8.50;4.30;;;;;;;;;;4934413;28;20059;-68
2023/04/27 00:11:24;;;;;;;10.38;4.88;;;;;;;;;;4937945;28;20066;-69
2023/04/27 00:13:50;;;;;;;6.63;3.95;;;;;;;;;;4935637;28;20048;-68
2023/04/27 00:16:16;;;;;;;5.50;3.92;;;;;;;;;;4939961;28;20051;-68
2023/04/27 00:18:42;;;;;;;5.70;3.75;;;;;;;;;;4938964;28;20047;-68
2023/04/27 00:21:08;;;;;;;7.55;3.40;;;;;;;;;;4941847;28;20731;-68
2023/04/27 00:23:34;;;;;;;5.75;3.88;;;;;;;;;;4941083;28;20074;-68
2023/04/27 00:26:00;;;;;;;6.65;4.15;;;1.80;99.90;;;;;;4936099;29;20040;-69
2023/04/27 00:28:26;;;;;;;6.72;4.07;;;;;;;;;;4938114;28;20050;-68
2023/04/27 00:30:53;;;;;;;7.18;3.42;;;;;;;;;;4932521;28;20495;-68
2023/04/27 00:33:19;;;;;;;6.80;4.05;;;;;;;;;;4944927;29;20036;-68
2023/04/27 00:35:45;;;;;;;5.45;3.33;;;;;;;;;;4936185;28;20047;-68
2023/04/27 00:38:11;;;;;;;6.63;3.83;;;;;;;;;;4933308;28;20058;-69
2023/04/27 00:40:40;;;;;;;5.78;3.28;;;1.60;99.90;;;;;;4931033;28;20040;-68
2023/04/27 00:43:06;;;;;;;5.72;3.17;;;;;;;;;;4928560;29;20039;-68
2023/04/27 00:45:35;;;;;;;6.22;3.88;;;;;;;;;;4948327;28;20079;-68
2023/04/27 00:48:01;;;;;;;5.55;3.75;;;;;;;;;;4941975;28;20053;-68
2023/04/27 00:50:28;;;;;;;7.38;3.78;;;;;;;;;;4931898;29;20047;-68
2023/04/27 00:52:55;;;;;;;5.10;3.47;;;;;;;;;;4936634;28;20052;-68
2023/04/27 00:55:21;;;;;;;4.70;3.30;;;;;;;;;;4941287;28;20042;-68
2023/04/27 00:57:47;;;;;;;7.10;4.38;;;;;;;;;;4937793;28;20075;-68
2023/04/27 01:00:14;;;;;;;5.80;3.97;;;;;;;;;;4933812;28;20136;-68
2023/04/27 01:02:40;;;;;;;5.40;4.10;;;;;;;;;;4935024;29;20097;-68
2023/04/27 01:05:07;;;;;;;8.07;3.80;;;;;;;;;;4941214;28;20090;-68
2023/04/27 01:07:36;;;;;;;7.90;3.83;;;;;;;;;;4943983;28;20537;-68
2023/04/27 01:10:03;;;;;;;5.50;3.83;;;;;;;;;;4930314;29;20526;-68
2023/04/27 01:12:29;;;;;;;11.63;4.45;;;;;;;;;;4938775;29;20059;-68
2023/04/27 01:14:55;;;;;;;9.60;5.50;;;;;;;;;;4946415;28;20049;-68
2023/04/27 01:17:21;;;;;;;9.75;4.63;;;;;;;;;;4940429;28;20050;-68
2023/04/27 01:19:48;;;;;;;6.13;4.38;;;;;;;;;;4935580;28;20046;-68
2023/04/27 01:22:14;;;;;;;7.13;4.93;;;;;;;;;;4936615;28;20054;-68
2023/04/27 01:24:41;;;;;;;11.00;4.60;;;;;;;;;;4933805;28;20134;-68
2023/04/27 01:27:06;;;;;;;6.15;3.88;;;1.10;99.90;;;;;;4942616;29;20154;-68
2023/04/27 01:29:32;;;;;;;7.05;4.20;;;;;;;;;;4939233;28;20823;-68
2023/04/27 01:31:58;;;;;;;8.02;5.30;;;;;;;;;;4939826;28;20622;-68
2023/04/27 01:34:24;;;;;;;9.07;4.97;;;;;;;;;;4942213;28;20156;-68
2023/04/27 01:36:50;;;;;;;7.25;3.92;;;;;;;;;;4934491;29;20072;-68
2023/04/27 01:39:16;;;;;;;10.80;4.43;;;;;;;;;;4938517;28;20047;-68
2023/04/27 01:41:42;;;;;;;7.38;4.05;;;;;;;;;;4938695;29;20103;-68
2023/04/27 01:44:08;;;;;;;6.93;4.50;;;;;;;;;;4945224;28;20138;-68
2023/04/27 01:46:34;;;;;;;8.45;4.95;;;;;;;;;;4945966;28;20433;-68
2023/04/27 01:49:00;;;;;;;9.30;4.97;;;;;;;;;;4936193;28;20054;-69
2023/04/27 01:51:26;;;;;;;6.57;4.40;;;;;;;;;;4931350;29;20051;-69
2023/04/27 01:53:52;;;;;;;9.65;5.07;;;;;;;;;;4930362;28;20050;-68
2023/04/27 01:56:18;;;;;;;8.30;5.18;;;;;;;;;;4935089;29;20051;-69
2023/04/27 01:58:45;;;;;;;6.50;4.50;;;;;;;;;;4939046;28;20048;-68
2023/04/27 02:01:11;;;;;;;8.27;5.03;;;;;;;;;;4930476;28;20108;-68
2023/04/27 02:03:37;;;;;;;10.30;4.75;;;;;;;;;;4941523;28;20075;-68
2023/04/27 02:06:03;;;;;;;10.15;5.25;;;;;;;;;;4938038;28;20110;-68
2023/04/27 02:08:29;;;;;;;5.28;3.90;;;;;;;;;;4916358;29;20106;-68
2023/04/27 02:10:54;;;;;;;7.65;4.97;;;;;;;;;;4935633;28;20445;-68
2023/04/27 02:13:20;;;;;;;9.13;4.90;;;;;;;;;;4937223;28;20063;-68
2023/04/27 02:15:46;;;;;;;9.70;4.25;;;;;;;;;;4928535;29;20047;-68
2023/04/27 02:18:14;;;;;;;7.10;4.78;;;;;;;;;;4945470;28;20039;-68
2023/04/27 02:20:41;;;;;;;8.80;4.53;;;;;;;;;;4944196;29;20047;-68
2023/04/27 02:23:06;;;;;;;6.97;4.82;;;;;;;;;;4940382;29;20047;-68
2023/04/27 02:25:32;;;;;;;8.50;4.13;;;;;;;;;;4938522;28;20050;-68
2023/04/27 02:27:58;;;;;;;10.07;4.90;;;;;;;;;;4935257;28;20058;-68
2023/04/27 02:30:24;;;;;;;6.60;4.22;;;;;;;;;;4942325;29;20386;-68
2023/04/27 02:32:50;;;;;;;6.78;4.50;;;;;;;;;;4936760;28;20039;-68
2023/04/27 02:35:16;;;;;;;5.95;4.13;;;;;;;;;;4944007;29;20453;-68
2023/04/27 02:37:42;;;;;;;8.02;4.40;;;;;;;;;;4938351;28;20053;-68
2023/04/27 02:40:09;;;;;;;5.55;3.88;;;;;;;;;;4930739;28;20080;-68
2023/04/27 02:42:37;;;;;;;5.88;3.90;;;;;;;;;;4945771;29;20097;-68
2023/04/27 02:45:03;;;;;;;6.95;3.70;;;;;;;;;;4940249;29;20583;-68
2023/04/27 02:47:29;;;;;;;6.53;4.68;;;;;;;;;;4943568;28;20055;-68
2023/04/27 02:49:55;;;;;;;6.10;3.78;;;;;;;;;;4935054;28;20044;-68
2023/04/27 02:52:21;;;;;;;4.68;2.90;;;;;;;;;;4935400;29;20502;-68
2023/04/27 02:54:47;;;;;;;6.97;3.97;;;;;;;;;;4941468;29;20047;-68
2023/04/27 02:57:13;;;;;;;4.80;3.88;;;;;;;;;;4944621;28;20140;-68
2023/04/27 02:59:39;;;;;;;4.80;3.75;;;;;;;;;;4945750;29;20047;-68
2023/04/27 03:02:06;;;;;;;4.82;3.35;;;;;;;;;;4942129;28;20066;-68
2023/04/27 03:04:32;;;;;;;7.20;4.25;;;;;;;;;;4938366;28;20040;-68
2023/04/27 03:06:58;;;;;;;4.95;3.63;;;;;;;;;;4939913;29;20055;-68
2023/04/27 03:09:24;;;;;;;8.00;4.55;;;;;;;;;;4940016;29;20080;-68
2023/04/27 03:11:50;;;;;;;8.35;5.07;;;;;;;;;;4922938;29;20697;-68
2023/04/27 03:14:16;;;;;;;6.75;4.70;;;;;;;;;;4935944;29;20055;-68
2023/04/27 03:16:42;;;;;;;5.97;4.28;;;;;;;;;;4940990;29;20051;-68
2023/04/27 03:19:08;;;;;;;8.15;4.63;;;;;;;;;;4937490;28;20046;-68
2023/04/27 03:21:34;;;;;;;8.48;4.68;;;;;;;;;;4934952;29;20048;-68
2023/04/27 03:24:00;;;;;;;5.68;3.95;;;;;;;;;;4946519;29;20039;-68
2023/04/27 03:26:26;;;;;;;8.70;4.60;;;;;;;;;;4937120;29;20050;-68
2023/04/27 03:28:52;;;;;;;5.15;3.95;;;;;;;;;;4943376;29;20055;-68
2023/04/27 03:31:18;;;;;;;6.80;4.50;;;;;;;;;;4939397;28;20047;-68
2023/04/27 03:33:44;;;;;;;6.63;4.75;;;;;;;;;;4936789;29;20070;-68
2023/04/27 03:36:11;;;;;;;6.82;4.38;;;;;;;;;;4933247;29;20039;-68
2023/04/27 03:38:37;;;;;;;8.30;4.57;;;;;;;;;;4936468;29;20054;-68
2023/04/27 03:41:03;;;;;;;7.75;4.85;;;;;;;;;;4938946;29;20135;-68
2023/04/27 03:43:29;;;;;;;8.98;5.22;;;;;;;;;;4923758;29;20039;-68
2023/04/27 03:45:55;;;;;;;7.40;4.55;;;;;;;;;;4940989;29;20059;-68
2023/04/27 03:48:21;;;;;;;7.25;4.70;;;;;;;;;;4939234;29;20047;-68
2023/04/27 03:50:47;;;;;;;6.43;4.75;;;;;;;;;;4931655;29;20047;-68
2023/04/27 03:53:13;;;;;;;13.00;6.13;;;;;;;;;;4939013;29;20724;-68
2023/04/27 03:55:41;;;;;;;9.10;5.55;;;;;;;;;;4946585;29;20047;-68
2023/04/27 03:58:09;;;;;;;7.85;5.80;;;;;;;;;;4937684;29;20055;-68
2023/04/27 04:00:35;;;;;;;8.00;5.18;;;;;;;;;;4931760;29;20052;-68
2023/04/27 04:03:01;;;;;;;9.15;4.97;;;;;;;;;;4932150;29;20043;-68
2023/04/27 04:05:29;;;;;;;9.20;5.20;;;;;;;;;;4939661;29;20057;-68
2023/04/27 04:07:55;;;;;;;9.20;5.45;;;;;;;;;;4940111;28;20142;-68
2023/04/27 04:10:21;;;;;;;6.35;4.15;;;;;;;;;;4931035;28;20524;-69
2023/04/27 04:12:47;;;;;;;9.60;4.78;;;;;;;;;;4941696;28;20052;-69
2023/04/27 04:15:13;;;;;;;6.88;4.82;;;;;;;;;;4942245;29;20067;-68
2023/04/27 04:17:39;;;;;;;8.70;4.72;;;;;;;;;;4940467;28;20102;-68
2023/04/27 04:20:07;;;;;;;7.47;5.00;;;;;;;;;;4939178;29;21025;-68
2023/04/27 04:22:33;;;;;;;9.75;4.95;;;;;;;;;;4945917;29;20062;-68
2023/04/27 04:24:59;;;;;;;7.88;4.93;;;;;;;;;;4934825;29;20052;-68
2023/04/27 04:27:25;;;;;;;9.18;5.47;;;;;;;;;;4935979;29;20582;-68
2023/04/27 04:29:51;;;;;;;9.77;5.65;;;;;;;;;;4938244;29;20509;-69
2023/04/27 04:32:19;;;;;;;9.55;5.65;;;;;;;;;;4946063;28;20054;-77
2023/04/27 04:34:49;;;;;;;8.32;5.80;;;;;;;;;;4942084;28;20042;-70
2023/04/27 04:37:17;;;;;;;8.88;5.57;;;;;;;;;;4965227;28;20051;-71
2023/04/27 04:39:43;;;;;;;8.00;5.28;;;;;;;;;;4940765;28;20047;-71
2023/04/27 04:42:09;;;;;;;8.48;5.38;;;;;;;;;;4931722;28;20040;-74
2023/04/27 04:44:35;;;;;;;8.68;5.40;;;;;;;;;;4948265;28;20429;-72
2023/04/27 04:47:01;;;;;;;10.73;4.97;;;;;;;;;;4945392;28;20047;-71
2023/04/27 04:49:27;;;;;;;7.32;4.70;;;;;;;;;;4941836;28;20047;-73
2023/04/27 04:51:53;;;;;;;8.75;5.07;;;;;;;;;;4944853;28;20046;-72
2023/04/27 04:54:19;;;;;;;10.95;5.93;;;;;;;;;;4937161;28;20159;-70
2023/04/27 04:56:45;;;;;;;8.48;5.22;;;;;;;;;;4941733;29;20106;-70
2023/04/27 04:59:11;;;;;;;10.48;4.68;;;;;;;;;;4915664;29;20084;-70
2023/04/27 05:01:37;;;;;;;8.10;5.20;;;;;;;;;;4935251;29;20525;-71
2023/04/27 05:04:03;;;;;;;9.95;5.55;;;;;;;;;;4945579;28;20127;-69
2023/04/27 05:06:29;;;;;;;7.10;5.18;;;;;;;;;;4940939;28;20051;-71
2023/04/27 05:08:55;;;;;;;9.13;5.90;;;;;;;;;;4940074;29;20494;-74
2023/04/27 05:11:21;;;;;;;9.40;5.93;;;;;;;;;;4933353;29;20714;-72
2023/04/27 05:13:47;;;;;;;10.65;5.25;;;;;;;;;;4934010;29;20085;-73
2023/04/27 05:16:13;;;;;;;8.80;5.60;;;;;;;;;;4935416;28;20066;-68
2023/04/27 05:18:40;;;;;;;7.68;4.93;;;;;;;;;;4938486;28;20082;-69
2023/04/27 05:21:16;;;;;;;7.35;5.38;;;1.40;99.90;;;;;;4938452;28;20773;-70
2023/04/27 05:23:42;;;;;;;12.45;5.57;;;;;;;;;;4951769;28;20054;-71
2023/04/27 05:26:15;;;;;;;8.93;5.28;;;;;;;;;;4939502;28;20116;-71
2023/04/27 05:28:41;;;;;;;11.05;5.70;;;;;;;;;;4936846;28;20046;-71
2023/04/27 05:31:07;;;;;;;8.07;5.53;;;;;;;;;;4936978;28;20039;-72
2023/04/27 05:33:33;;;;;;;8.25;5.15;;;;;;;;;;4941640;28;20064;-72
2023/04/27 05:35:59;;;;;;;9.82;5.45;;;;;;;;;;4936768;28;20516;-71
2023/04/27 05:38:25;;;;;;;9.30;5.20;;;;;;;;;;4937127;28;20102;-71
2023/04/27 05:40:55;;;;;;;7.45;5.28;;;;;;;;;;4916938;29;20043;-69
2023/04/27 05:43:21;;;;;;;8.68;5.53;;;;;;;;;;4944633;29;20051;-70
2023/04/27 05:45:47;;;;;;;9.02;6.25;;;;;;;;;;4944117;28;20043;-72
2023/04/27 05:48:13;;;;;;;7.25;5.03;;;;;;;;;;4936287;28;20058;-72
2023/04/27 05:50:39;;;;;;;8.95;5.00;;;;;;;;;;4931488;28;20043;-72
2023/04/27 05:53:05;;;;;;;10.93;5.40;;;;;;;;;;4921498;29;20047;-71
2023/04/27 05:55:32;;;;;;;8.52;5.40;;;;;;;;;;4940641;29;20052;-69
2023/04/27 05:57:58;;;;;;;6.97;4.70;;;;;;;;;;4948771;28;20046;-75
2023/04/27 06:00:24;;;;;;;7.60;5.03;;;;;;;;;;4941391;29;20052;-71
2023/04/27 06:02:50;;;;;;;6.97;4.60;;;;;;;;;;4947749;28;20043;-73
2023/04/27 06:05:16;;;;;;;8.82;4.90;;;;;;;;;;4946633;28;20383;-73
2023/04/27 06:07:42;;;;;;;7.68;4.90;;;;;;;;;;4923616;29;20051;-74
2023/04/27 06:10:09;;;;;;;8.30;4.53;;;7.20;99.90;;;;;;4938293;28;20086;-73
2023/04/27 06:12:35;;;;;;;6.90;4.55;;;;;;;;;;4943070;28;20059;-75
2023/04/27 06:15:06;;;;;;;6.85;3.72;;;8.50;99.90;;;;;;4948064;28;20047;-72
2023/04/27 06:17:32;;;;;;;6.78;4.13;;;;;;;;;;4942245;28;20051;-75
2023/04/27 06:19:58;;;;;;;7.25;4.35;;;10.20;99.90;;;;;;4934667;28;20130;-73
2023/04/27 06:22:24;;;;;;;5.30;4.10;;;11.00;99.90;;;;;;4936606;28;20053;-72
2023/04/27 06:24:49;;;;;;;7.38;4.15;;;11.90;99.90;;;;;;4942596;28;20039;-71
2023/04/27 06:27:15;;;;;;;5.03;3.95;;;;;;;;;;4945068;28;20420;-71
2023/04/27 06:29:41;;;;;;;6.95;4.22;;;13.30;99.90;;;;;;4934472;28;20047;-70
2023/04/27 06:32:07;;;;;;;5.78;3.38;;;;;;;;;;4937207;28;20046;-72
2023/04/27 06:34:34;;;;;;;7.85;3.55;;;14.00;99.90;;;;;;4940204;28;20170;-77
2023/04/27 06:36:59;;;;;;;10.65;4.05;;;14.20;99.90;;;;;;4922604;28;20082;-70
2023/04/27 06:39:25;;;;;;;5.75;3.38;;;14.70;99.90;;;;;;4939396;28;20079;-71
2023/04/27 06:41:51;;;;;;;8.50;3.35;;;15.00;99.90;;;;;;4943716;28;20430;-71
2023/04/27 06:44:16;;;;;;;3.95;2.92;;;15.30;99.90;;;;;;4936911;28;20052;-71
2023/04/27 06:46:42;;;;;;;6.90;3.20;;;15.70;99.90;;;;;;4938124;28;20052;-72
2023/04/27 06:49:07;;;;;;;4.32;3.35;;;16.00;99.90;;;;;;4941793;28;20043;-72
2023/04/27 06:51:33;;;;;;;5.70;3.08;;;16.20;99.90;;;;;;4936842;28;20059;-75
2023/04/27 06:53:58;;;;;;;5.13;3.05;;;16.30;99.90;;;;;;4940254;29;20517;-70
2023/04/27 06:56:24;;;;;;;2.50;2.30;;;16.40;99.90;;;;;;4938872;28;20085;-71
2023/04/27 06:58:49;;;;;;;3.58;2.70;;;16.60;99.90;;;;;;4934766;28;20036;-71
2023/04/27 07:01:15;;;;;;;5.35;2.45;;;16.90;99.90;;;;;;4946814;28;20596;-70
2023/04/27 07:03:41;;;;;;;5.15;2.42;;;19.10;99.90;;;;;;4935473;28;20414;-71
2023/04/27 07:06:06;;;;;;;6.55;2.05;;;15.30;99.90;;;;;;4936235;28;20028;-72
2023/04/27 07:08:32;;;;;;;5.15;2.15;;;;;;;;;;4936419;28;20055;-74
2023/04/27 07:10:58;;;;;;;4.72;2.20;;;;;;;;;;4931617;28;20040;-71
2023/04/27 07:13:24;;;;;;;4.25;2.95;;;12.10;99.90;;;;;;4943686;28;20109;-72
2023/04/27 07:15:56;;;;;;;4.75;2.15;;;;;;;;;;4935346;28;20414;-70
2023/04/27 07:18:22;;;;;;;4.22;2.33;;;11.10;99.90;;;;;;4940369;28;20055;-71
2023/04/27 07:20:48;;;;;;;3.42;2.08;;;;;;;;;;4935003;28;20054;-70
2023/04/27 07:23:15;;;;;;;5.07;1.75;;;;;;;;;;4937724;28;20058;-72
2023/04/27 07:25:42;;;;;;;6.22;2.28;;;;;;;;;;4932944;28;20044;-71
2023/04/27 07:28:08;;;;;;;4.43;2.28;;;;;;;;;;4933437;29;20087;-73
2023/04/27 07:30:35;;;;;;;5.38;2.20;;;;;;;;;;4942935;28;20587;-74
2023/04/27 07:33:01;;;;;;;3.80;2.20;;;;;;;;;;4940297;28;20047;-73
2023/04/27 07:35:28;;;;;;;2.95;2.10;;;;;;;;;;4948574;28;20493;-71
2023/04/27 07:37:55;;;;;;;4.43;2.50;;;;;;;;;;4939008;28;20051;-79
2023/04/27 07:40:23;;;;;;;4.85;2.42;;;;;;;;;;4935298;28;20050;-71
2023/04/27 07:42:49;;;;;;;4.63;1.85;;;;;;;;;;4945343;28;20105;-74
2023/04/27 07:45:18;;;;;;;8.93;2.13;;;;;;;;;;4925148;29;20052;-73
2023/04/27 07:47:45;;;;;;;5.57;2.00;;;;;;;;;;4924113;29;20058;-75
2023/04/27 07:50:17;;;;;;;3.00;2.10;;;;;;;;;;4935583;28;20122;-74
2023/04/27 07:52:43;;;;;;;4.80;2.03;;;;;;;;;;4939065;28;20528;-73
2023/04/27 07:55:09;;;;;;;4.03;2.00;;;;;;;;;;4943763;29;20078;-74
2023/04/27 07:57:35;;;;;;;4.40;2.53;;;;;;;;;;4945952;29;20044;-74
2023/04/27 08:00:04;;;;;;;3.33;1.90;;;;;;;;;;4934496;29;20043;-73
2023/04/27 08:02:30;;;;;;;3.00;1.67;;;;;;;;;;4939392;29;20106;-75
2023/04/27 08:04:56;;;;;;;4.63;2.55;;;;;;;;;;4950282;28;20051;-73
2023/04/27 08:07:22;;;;;;;5.20;1.90;;;;;;;;;;4938424;29;20052;-73
2023/04/27 08:09:52;;;;;;;6.13;2.30;;;;;;;;;;4942090;29;20385;-75
2023/04/27 08:12:18;;;;;;;2.83;2.30;;;;;;;;;;4940392;29;20521;-73
2023/04/27 08:14:44;;;;;;;3.67;2.58;;;;;;;;;;4947308;29;20087;-74
2023/04/27 08:17:10;;;;;;;5.45;2.40;;;;;;;;;;4948393;29;20079;-75
2023/04/27 08:19:37;;;;;;;3.33;2.05;;;;;;;;;;4944427;29;20051;-73
2023/04/27 08:22:02;;;;;;;6.93;2.53;;;;;;;;;;4939202;29;20047;-75
2023/04/27 08:24:29;;;;;;;3.47;2.30;;;;;;;;;;4938309;29;20035;-74
2023/04/27 08:26:55;;;;;;;4.70;2.20;;;;;;;;;;4942655;29;20051;-74
2023/04/27 08:29:21;;;;;;;6.80;2.08;;;;;;;;;;4939602;29;20047;-73
2023/04/27 08:31:47;;;;;;;5.53;2.00;;;;;;;;;;4939071;29;20501;-73
2023/04/27 08:34:13;;;;;;;4.35;2.42;;;;;;;;;;4940237;29;20048;-74
2023/04/27 08:36:39;;;;;;;4.53;1.90;;;;;;;;;;4933015;29;20050;-73
2023/04/27 08:39:06;;;;;;;4.90;2.33;;;;;;;;;;4936863;28;20609;-76
2023/04/27 08:41:32;;;;;;;5.72;2.50;;;;;;;;;;4936653;29;20122;-73
2023/04/27 08:43:58;;;;;;;6.20;2.40;;;;;;;;;;4942285;28;20517;-73
2023/04/27 08:46:28;;;;;;;3.30;2.20;;;;;;;;;;4941417;29;20105;-73
2023/04/27 08:48:55;;;;;;;3.38;2.30;;;;;;;;;;4935219;29;20123;-74
2023/04/27 08:51:23;;;;;;;4.47;2.35;;;10.50;99.90;;;;;;4934779;29;20056;-73
2023/04/27 08:53:53;;;;;;;4.50;2.10;;;10.70;99.90;;;;;;4939923;29;20114;-73
2023/04/27 08:56:19;;;;;;;4.85;2.50;;;;;;;;;;4940180;29;20486;-73
2023/04/27 08:58:45;;;;;;;4.78;2.65;;;;;;;;;;4935859;29;20043;-73
2023/04/27 09:01:12;;;;;;;5.75;2.38;;;;;;;;;;4932509;29;20051;-73
2023/04/27 09:03:38;;;;;;;4.80;2.10;;;;;;;;;;4945409;29;20518;-75
2023/04/27 09:06:05;;;;;;;3.05;2.40;;;;;;;;;;4940822;29;20055;-73
2023/04/27 09:08:48;;;;;;;13.40;3.65;;;11.20;99.90;;;;;;4939874;29;20150;-74
2023/04/27 09:11:14;;;;;;;6.18;2.40;;;11.40;99.90;;;;;;4941740;29;20607;-74
2023/04/27 09:13:43;;;;;;;5.63;2.50;;;;;;;;;;4931667;29;20057;-73
2023/04/27 09:16:10;;;;;;;5.88;2.67;;;;;;;;;;4941189;29;20061;-73
2023/04/27 09:18:36;;;;;;;6.68;3.30;;;;;;;;;;4940984;29;20047;-73
2023/04/27 09:21:03;;;;;;;4.70;2.78;;;;;;;;;;4936399;28;20079;-73
2023/04/27 09:23:33;;;;;;;5.57;2.50;;;11.80;99.90;;;;;;4940589;29;20043;-74
2023/04/27 09:26:01;;;;;;;4.05;2.65;;;;;;;;;;4944181;29;20406;-74
2023/04/27 09:28:27;;;;;;;5.18;2.63;;;11.90;99.90;;;;;;4944939;29;20406;-76
2023/04/27 09:30:53;;;;;;;7.25;2.83;;;;;;;;;;4933119;29;20043;-74
2023/04/27 09:33:27;;;;;;;8.50;2.85;;;;;;;;;;4958258;28;20406;-75
2023/04/27 09:35:53;;;;;;;3.80;2.78;;;;;;;;;;4933826;29;20071;-73
2023/04/27 09:38:20;;;;;;;4.72;2.58;;;11.90;99.90;;;;;;4922944;29;20052;-73
2023/04/27 09:40:47;;;;;;;6.40;2.90;;;;;;;;;;4940810;28;20855;-73
2023/04/27 09:43:13;;;;;;;5.30;2.58;;;12.20;99.90;;;;;;4944008;28;20047;-73
2023/04/27 09:45:39;;;;;;;4.93;2.47;;;;;;;;;;4940353;28;20047;-73
2023/04/27 09:48:05;;;;;;;5.28;2.45;;;12.30;99.90;;;;;;4941403;28;20046;-72
2023/04/27 09:50:36;;;;;;;4.10;2.70;;;12.40;99.90;;;;;;4939889;28;20106;-70
2023/04/27 09:53:04;;;;;;;7.63;2.97;;;12.30;99.90;;;;;;4942779;28;20063;-71
2023/04/27 09:55:35;;;;;;;7.45;2.85;;;12.50;99.90;;;;;;4939219;28;20544;-70
2023/04/27 09:58:35;;;;;;;7.25;3.28;;;12.30;99.90;;;;;;4946504;28;20082;-71
2023/04/27 10:01:35;;;;;;;4.95;2.80;;;12.60;99.90;;;;;;4944046;28;20031;-71
2023/04/27 10:04:38;;;;;;;8.65;3.38;;;12.50;99.90;;;;;;4937353;28;20490;-71
2023/04/27 10:07:05;;;;;;;8.23;3.15;;;;;;;;;;4947246;28;20047;-72
2023/04/27 10:09:41;;;;;;;8.40;3.13;;;12.30;99.90;;;;;;4940005;28;20101;-71
2023/04/27 10:12:14;;;;;;;3.47;2.65;;;12.60;99.90;;;;;;4947356;28;20063;-70
2023/04/27 10:14:57;;;;;;;8.05;4.05;;;;;;;;;;4938804;28;20035;-72
2023/04/27 10:17:27;;;;;;;6.38;3.38;;;12.70;99.90;;;;;;4936305;28;20095;-71
2023/04/27 10:20:08;;;;;;;5.32;3.50;;;12.70;99.90;;;;;;4929269;28;20736;-70
2023/04/27 10:22:48;;;;;;;5.35;3.15;;;;;;;;;;4934112;28;20126;-71
2023/04/27 10:25:25;;;;;;;6.20;3.22;;;13.00;99.90;;;;;;4944556;28;20075;-71
2023/04/27 10:27:57;;;;;;;4.25;3.05;;;13.10;99.90;;;;;;4944739;28;20087;-70
2023/04/27 10:30:25;;;;;;;5.95;3.30;;;12.70;99.90;;;;;;4942939;28;20661;-69
2023/04/27 10:32:53;;;;;;;7.50;2.92;;;12.90;99.90;;;;;;4944586;28;20147;-69
2023/04/27 10:35:20;;;;;;;6.95;4.13;;;13.10;99.90;;;;;;4940058;28;20055;-70
2023/04/27 10:37:46;;;;;;;6.03;3.45;;;;;;;;;;4928856;28;20086;-70
2023/04/27 10:40:19;;;;;;;6.40;3.20;;;;;;;;;;4938224;28;20107;-70
2023/04/27 10:42:48;;;;;;;7.55;4.35;;;13.00;99.90;;;;;;4946205;28;20093;-70
2023/04/27 10:45:14;;;;;;;7.72;3.40;;;;;;;;;;4934327;28;20079;-71
2023/04/27 10:47:46;;;;;;;6.35;3.03;;;13.00;99.90;;;;;;4938069;28;20089;-70
2023/04/27 10:50:13;;;;;;;4.43;3.20;;;13.00;99.90;;;;;;4929895;29;20479;-71
2023/04/27 10:52:42;;;;;;;5.10;2.95;;;13.10;99.90;;;;;;4942001;28;20046;-71
2023/04/27 10:55:21;;;;;;;6.47;3.90;;;;;;;;;;4934298;28;20090;-70
2023/04/27 10:57:52;;;;;;;6.22;3.13;;;13.20;99.90;;;;;;4921072;28;20506;-70
2023/04/27 11:00:26;;;;;;;5.93;2.90;;;13.00;99.90;;;;;;4930357;28;20051;-72
2023/04/27 11:02:53;;;;;;;5.53;3.58;;;;;;;;;;4936484;28;20039;-72
2023/04/27 11:05:21;;;;;;;7.70;3.10;;;13.20;99.90;;;;;;4940826;28;20611;-70
2023/04/27 11:07:47;;;;;;;4.63;2.97;;;;;;;;;;4937917;29;20051;-71
2023/04/27 11:10:17;;;;;;;4.93;3.60;;;13.20;99.90;;;;;;4932007;28;20417;-73
2023/04/27 11:12:44;;;;;;;5.63;3.80;;;;;;;;;;4944151;29;20055;-70
2023/04/27 11:15:10;;;;;;;6.68;3.00;;;;;;;;;;4945421;28;20105;-72
2023/04/27 11:17:36;;;;;;;7.82;4.15;;;;;;;;;;4943096;28;20062;-72
2023/04/27 11:20:06;;;;;;;4.38;3.28;;;;;;;;;;4938421;28;20039;-72
2023/04/27 11:22:32;;;;;;;9.73;4.15;;;;;;;;;;4944297;28;20043;-72
2023/04/27 11:24:58;;;;;;;7.93;3.78;;;;;;;;;;4941835;28;20036;-73
2023/04/27 11:27:36;;;;;;;5.90;3.67;;;13.60;99.90;;;;;;4943881;28;20059;-72
2023/04/27 11:30:02;;;;;;;6.38;3.40;;;;;;;;;;4940767;28;20048;-72
2023/04/27 11:32:28;;;;;;;6.85;3.33;;;13.30;99.90;;;;;;4938663;28;20039;-70
2023/04/27 11:34:53;;;;;;;6.68;3.10;;;13.20;99.90;;;;;;4933393;28;20051;-73
2023/04/27 11:37:26;;;;;;;6.95;4.07;;;13.20;99.90;;;;;;4939433;28;20413;-74
2023/04/27 11:39:53;;;;;;;8.63;3.58;;;13.40;99.90;;;;;;4945719;28;20059;-70
2023/04/27 11:42:27;;;;;;;6.07;3.65;;;13.30;99.90;;;;;;4951693;28;20039;-70
2023/04/27 11:44:56;;;;;;;6.22;3.50;;;13.30;99.90;;;;;;4940506;28;20035;-72
2023/04/27 11:47:24;;;;;;;6.05;3.50;;;13.40;99.90;;;;;;4951366;28;20085;-71
2023/04/27 11:49:57;;;;;;;10.27;3.20;;;13.50;99.90;;;;;;4934570;28;20114;-72
2023/04/27 11:52:37;;;;;;;6.85;3.50;;;13.50;99.90;;;;;;4934527;28;20050;-72
2023/04/27 11:55:03;;;;;;;6.95;3.53;;;13.60;99.90;;;;;;4940148;29;20409;-72
2023/04/27 11:57:31;;;;;;;10.10;4.97;;;13.70;99.90;;;;;;4935971;29;20516;-72
2023/04/27 12:00:01;;;;;;;5.18;3.65;;;13.50;99.90;;;;;;4930216;29;20039;-71
2023/04/27 12:02:30;;;;;;;10.45;4.88;;;13.30;99.90;;;;;;4937219;29;20047;-72
2023/04/27 12:04:58;;;;;;;6.95;3.67;;;13.30;99.90;;;;;;4942598;28;20401;-72
2023/04/27 12:07:24;;;;;;;5.53;3.50;;;;;;;;;;4942885;29;20065;-71
2023/04/27 12:09:50;;;;;;;6.82;4.07;;;;;;;;;;4944351;29;20406;-72
2023/04/27 12:12:21;;;;;;;7.47;3.92;;;;;;;;;;4938890;28;20430;-72
2023/04/27 12:14:47;;;;;;;6.88;4.20;;;;;;;;;;4937627;29;20051;-72
2023/04/27 12:17:13;;;;;;;6.10;4.03;;;;;;;;;;4930893;29;20067;-72
2023/04/27 12:19:39;;;;;;;6.10;3.83;;;;;;;;;;4938227;28;20043;-72
2023/04/27 12:22:05;;;;;;;10.80;4.13;;;;;;;;;;4940334;28;20532;-72
2023/04/27 12:24:31;;;;;;;6.40;3.28;;;;;;;;;;4937332;28;20502;-72
2023/04/27 12:26:58;;;;;;;6.28;4.03;;;12.80;99.90;;;;;;4947166;28;20049;-72
2023/04/27 12:29:24;;;;;;;7.93;4.03;;;;;;;;;;4935261;29;20091;-71
2023/04/27 12:31:50;;;;;;;8.13;3.75;;;;;;;;;;4937075;28;20086;-72
2023/04/27 12:34:16;;;;;;;6.72;3.92;;;;;;;;;;4945192;28;20048;-72
2023/04/27 12:36:42;;;;;;;7.80;4.50;;;12.70;99.90;;;;;;4934917;28;20046;-71
2023/04/27 12:39:16;;;;;;;5.78;4.18;;;12.70;99.90;;;;;;4939928;28;20052;-72
2023/04/27 12:41:46;;;;;;;9.20;4.60;;;12.80;99.90;;;;;;4934111;28;20498;-72
2023/04/27 12:44:12;;;;;;;5.85;4.47;;;12.90;99.90;;;;;;4943231;28;20047;-72
2023/04/27 12:46:42;;;;;;;8.55;4.20;;;12.90;99.90;;;;;;4941738;28;20753;-71
2023/04/27 12:49:09;;;;;;;10.02;4.70;;;12.90;99.90;;;;;;4938513;28;20489;-72
2023/04/27 12:51:35;;;;;;;7.60;3.92;;;;;;;;;;4955233;28;20062;-72
2023/04/27 12:54:08;;;;;;;10.70;3.90;;;12.90;99.90;;;;;;4933133;28;20051;-76
2023/04/27 12:56:34;;;;;;;6.63;4.63;;;;;;;;;;4938626;29;20474;-72
2023/04/27 12:59:00;;;;;;;9.57;4.20;;;;;;;;;;4932424;29;20043;-71
2023/04/27 13:01:26;;;;;;;8.68;5.00;;;;;;;;;;4942469;29;20136;-71
2023/04/27 13:03:53;;;;;;;8.88;5.05;;;12.70;99.90;;;;;;4937970;29;20445;-73
2023/04/27 13:06:21;;;;;;;9.25;4.95;;;;;;;;;;4938017;28;20047;-72
2023/04/27 13:08:48;;;;;;;17.77;12.38;;;12.70;99.90;;;;;;4939842;28;20075;-75
2023/04/27 13:11:13;;;;;;;9.38;4.93;;;12.80;99.90;;;;;;4930309;29;20319;-72
2023/04/27 13:13:40;;;;;;;6.72;3.97;;;;;;;;;;4951406;28;20074;-74
2023/04/27 13:16:06;;;;;;;9.63;4.20;;;;;;;;;;4948750;28;20157;-73
2023/04/27 13:18:32;;;;;;;5.15;4.00;;;;;;;;;;4948781;28;20129;-71
2023/04/27 13:20:57;;;;;;;7.13;4.68;;;12.80;99.90;;;;;;4948030;28;20043;-74
2023/04/27 13:23:25;;;;;;;6.57;4.18;;;;;;;;;;4943687;28;20101;-73
2023/04/27 13:25:51;;;;;;;9.63;4.47;;;;;;;;;;4939048;28;20197;-70
2023/04/27 13:28:17;;;;;;;6.38;4.38;;;;;;;;;;4941478;28;20513;-71
2023/04/27 13:30:43;;;;;;;8.90;4.28;;;12.90;99.90;;;;;;4944276;28;20071;-73
2023/04/27 13:33:13;;;;;;;6.00;4.03;;;12.90;99.90;;;;;;4945290;28;20046;-73
2023/04/27 13:35:42;;;;;;;7.22;4.15;;;12.80;99.90;;;;;;4939914;28;20035;-73
2023/04/27 13:38:08;;;;;;;8.75;4.22;;;;;;;;;;4935905;28;20126;-73
2023/04/27 13:40:33;;;;;;;6.90;4.00;;;12.90;99.90;;;;;;4932903;28;20121;-73
2023/04/27 13:42:59;;;;;;;7.10;3.70;;;;;;;;;;4944159;28;20406;-73
2023/04/27 13:45:25;;;;;;;7.78;4.22;;;;;;;;;;4937362;28;20324;-73
2023/04/27 13:47:51;;;;;;;6.80;3.90;;;;;;;;;;4937280;28;20561;-70
2023/04/27 13:50:17;;;;;;;6.93;4.15;;;;;;;;;;4939756;28;20048;-70
2023/04/27 13:52:43;;;;;;;6.18;4.05;;;;;;;;;;4944273;28;20046;-71
2023/04/27 13:55:10;;;;;;;7.68;4.22;;;13.10;99.90;;;;;;4937351;29;20493;-72
2023/04/27 13:57:36;;;;;;;7.63;3.67;;;13.10;99.90;;;;;;4941926;28;20132;-72
2023/04/27 14:00:03;;;;;;;5.75;3.92;;;;;;;;;;4949538;28;20038;-72
2023/04/27 14:02:29;;;;;;;6.47;4.10;;;13.00;99.90;;;;;;4941707;28;20083;-71
2023/04/27 14:04:55;;;;;;;7.65;4.90;;;13.00;99.90;;;;;;4945620;28;20507;-71
2023/04/27 14:07:21;;;;;;;5.43;4.25;;;;;;;;;;4936033;28;20793;-72
2023/04/27 14:09:47;;;;;;;5.90;3.92;;;;;;;;;;4936618;28;20148;-70